createdAt,value
2018-10-16T00:00:16.352Z,97.26
2018-10-16T00:02:46.403Z,97.71
2018-10-16T00:05:16.601Z,98.56
2018-10-16T00:07:46.089Z,98.43
2018-10-16T00:10:19.573Z,99.99
2018-10-16T00:12:48.991Z,99.92
2018-10-16T00:15:18.395Z,99.70
2018-10-16T00:17:47.784Z,99.70
2018-10-16T00:20:17.180Z,99.90
2018-10-16T00:22:46.583Z,99.96
2018-10-16T00:25:17.440Z,99.72
2018-10-16T00:27:46.887Z,98.29
2018-10-16T00:30:16.360Z,98.71
2018-10-16T00:32:45.906Z,98.44
2018-10-16T00:35:15.353Z,97.57
2018-10-16T00:37:44.744Z,97.92
2018-10-16T00:40:14.123Z,98.43
2018-10-16T00:42:43.524Z,98.93
2018-10-16T00:45:13.191Z,98.62
2018-10-16T00:47:42.607Z,97.62
2018-10-16T00:50:12.127Z,97.96
2018-10-16T00:52:41.568Z,98.04
2018-10-16T00:55:11.151Z,98.09
2018-10-16T00:57:41.203Z,97.70
2018-10-16T01:00:12.290Z,97.74
2018-10-16T01:02:42.599Z,97.94
2018-10-16T01:05:12.832Z,97.84
2018-10-16T01:07:42.755Z,97.49
2018-10-16T01:10:12.916Z,96.90
2018-10-16T01:12:42.499Z,97.16
2018-10-16T01:15:12.543Z,97.73
2018-10-16T01:17:42.127Z,98.22
2018-10-16T01:20:13.261Z,98.92
2018-10-16T01:22:43.142Z,99.14
2018-10-16T01:25:13.416Z,99.28
2018-10-16T01:27:42.808Z,99.78
2018-10-16T01:30:12.299Z,99.45
2018-10-16T01:32:41.715Z,99.49
2018-10-16T01:35:12.271Z,99.89
2018-10-16T01:37:42.079Z,99.47
2018-10-16T01:40:11.900Z,99.01
2018-10-16T01:42:41.311Z,99.38
2018-10-16T01:45:11.212Z,99.14
2018-10-16T01:47:40.616Z,98.21
2018-10-16T01:50:10.073Z,98.30
2018-10-16T01:52:39.535Z,98.37
2018-10-16T01:55:08.947Z,99.72
2018-10-16T01:57:38.368Z,100.00
2018-10-16T02:00:09.365Z,100.00
2018-10-16T02:02:38.953Z,100.00
2018-10-16T02:05:08.632Z,100.00
2018-10-16T02:07:38.076Z,99.74
2018-10-16T02:10:08.015Z,99.29
2018-10-16T02:12:37.636Z,99.70
2018-10-16T02:15:08.520Z,99.99
2018-10-16T02:17:38.806Z,100.00
2018-10-16T02:20:08.623Z,100.00
2018-10-16T02:22:38.631Z,100.00
2018-10-16T02:25:08.803Z,100.00
2018-10-16T02:27:38.297Z,100.00
2018-10-16T02:30:07.848Z,100.00
2018-10-16T02:32:37.297Z,100.00
2018-10-16T02:35:08.264Z,99.89
2018-10-16T02:37:37.675Z,100.00
2018-10-16T02:40:08.230Z,100.00
2018-10-16T02:42:38.096Z,100.00
2018-10-16T02:45:08.695Z,100.00
2018-10-16T02:47:38.263Z,100.00
2018-10-16T02:50:08.325Z,100.00
2018-10-16T02:52:37.848Z,100.00
2018-10-16T02:55:09.068Z,100.00
2018-10-16T02:57:38.511Z,100.00
2018-10-16T03:00:08.071Z,100.00
2018-10-16T03:02:37.569Z,99.93
2018-10-16T03:05:07.156Z,100.00
2018-10-16T03:07:36.703Z,99.48
2018-10-16T03:10:06.247Z,99.86
2018-10-16T03:12:35.628Z,99.74
2018-10-16T03:15:08.040Z,99.75
2018-10-16T03:17:37.708Z,99.90
2018-10-16T03:20:07.515Z,100.00
2018-10-16T03:22:37.248Z,100.00
2018-10-16T03:25:08.516Z,100.00
2018-10-16T03:27:38.275Z,100.00
2018-10-16T03:30:09.770Z,100.00
2018-10-16T03:32:39.655Z,100.00
2018-10-16T03:35:10.593Z,100.00
2018-10-16T03:37:41.063Z,100.00
2018-10-16T03:40:11.296Z,100.00
2018-10-16T03:42:41.702Z,99.93
2018-10-16T03:45:12.364Z,100.00
2018-10-16T03:47:41.973Z,100.00
2018-10-16T03:50:11.396Z,100.00
2018-10-16T03:52:40.884Z,100.00
2018-10-16T03:55:10.307Z,100.00
2018-10-16T03:57:39.735Z,100.00
2018-10-16T04:00:10.252Z,100.00
2018-10-16T04:02:39.780Z,100.00
2018-10-16T04:05:09.283Z,100.00
2018-10-16T04:07:39.188Z,100.00
2018-10-16T04:10:09.164Z,100.00
2018-10-16T04:12:38.591Z,100.00
2018-10-16T04:15:09.602Z,100.00
2018-10-16T04:17:39.699Z,100.00
2018-10-16T04:20:09.218Z,100.00
2018-10-16T04:22:38.875Z,100.00
2018-10-16T04:25:08.820Z,100.00
2018-10-16T04:27:38.301Z,100.00
2018-10-16T04:30:08.459Z,100.00
2018-10-16T04:32:37.863Z,100.00
2018-10-16T04:35:13.671Z,100.00
2018-10-16T04:37:43.483Z,100.00
2018-10-16T04:40:13.064Z,100.00
2018-10-16T04:42:42.931Z,99.88
2018-10-16T04:45:13.158Z,99.71
2018-10-16T04:47:42.586Z,99.64
2018-10-16T04:50:11.984Z,99.65
2018-10-16T04:52:41.712Z,99.90
2018-10-16T04:55:11.217Z,100.00
2018-10-16T04:57:40.596Z,100.00
2018-10-16T05:00:10.501Z,100.00
2018-10-16T05:02:41.044Z,100.00
2018-10-16T05:05:19.151Z,100.00
2018-10-16T05:07:48.967Z,100.00
2018-10-16T05:10:25.932Z,100.00
2018-10-16T05:12:55.395Z,100.00
2018-10-16T05:15:30.624Z,100.00
2018-10-16T05:18:00.879Z,100.00
2018-10-16T05:20:30.700Z,100.00
2018-10-16T05:23:00.865Z,100.00
2018-10-16T05:25:30.976Z,100.00
2018-10-16T05:28:00.396Z,100.00
2018-10-16T05:30:29.805Z,100.00
2018-10-16T05:32:59.197Z,100.00
2018-10-16T05:35:28.629Z,100.00
2018-10-16T05:37:58.113Z,100.00
2018-10-16T05:40:27.508Z,100.00
2018-10-16T05:42:57.023Z,100.00
2018-10-16T05:45:27.772Z,100.00
2018-10-16T05:47:57.261Z,100.00
2018-10-16T05:50:26.711Z,100.00
2018-10-16T05:52:56.121Z,100.00
2018-10-16T05:55:25.569Z,100.00
2018-10-16T05:57:54.980Z,100.00
2018-10-16T06:00:36.285Z,100.00
2018-10-16T06:03:06.076Z,100.00
2018-10-16T06:05:35.856Z,100.00
2018-10-16T06:08:05.636Z,100.00
2018-10-16T06:10:35.400Z,100.00
2018-10-16T06:13:04.999Z,100.00
2018-10-16T06:15:34.407Z,100.00
2018-10-16T06:18:03.811Z,100.00
2018-10-16T06:20:33.260Z,100.00
2018-10-16T06:23:02.720Z,100.00
2018-10-16T06:25:32.126Z,100.00
2018-10-16T06:28:14.783Z,100.00
2018-10-16T06:30:44.240Z,100.00
2018-10-16T06:33:14.158Z,100.00
2018-10-16T06:35:43.509Z,100.00
2018-10-16T06:38:12.895Z,100.00
2018-10-16T06:40:42.337Z,100.00
2018-10-16T06:43:11.807Z,100.00
2018-10-16T06:45:41.283Z,100.00
2018-10-16T06:48:11.047Z,100.00
2018-10-16T06:50:40.299Z,100.00
2018-10-16T06:53:09.748Z,100.00
2018-10-16T06:55:39.172Z,100.00
2018-10-16T06:58:08.666Z,100.00
2018-10-16T07:00:38.076Z,100.00
2018-10-16T07:03:07.708Z,100.00
2018-10-16T07:05:37.104Z,100.00
2018-10-16T07:08:06.511Z,100.00
2018-10-16T07:10:35.924Z,100.00
2018-10-16T07:13:05.372Z,100.00
2018-10-16T07:15:34.784Z,99.52
2018-10-16T07:18:04.200Z,99.17
2018-10-16T07:20:33.596Z,98.61
2018-10-16T07:23:03.017Z,97.81
2018-10-16T07:25:32.404Z,96.93
2018-10-16T07:28:01.817Z,97.07
2018-10-16T07:30:31.319Z,97.10
2018-10-16T07:33:00.709Z,96.56
2018-10-16T07:35:30.123Z,95.97
2018-10-16T07:37:59.637Z,95.52
2018-10-16T07:40:28.948Z,95.47
2018-10-16T07:42:58.352Z,94.66
2018-10-16T07:45:27.744Z,94.84
2018-10-16T07:47:57.134Z,94.87
2018-10-16T07:50:26.551Z,95.04
2018-10-16T07:52:55.936Z,94.50
2018-10-16T07:55:25.385Z,94.00
2018-10-16T07:57:54.783Z,93.60
2018-10-16T08:00:24.187Z,92.93
2018-10-16T08:02:53.691Z,93.64
2018-10-16T08:05:23.119Z,93.61
2018-10-16T08:07:52.593Z,92.23
2018-10-16T08:10:22.011Z,91.95
2018-10-16T08:12:51.404Z,92.12
2018-10-16T08:15:20.805Z,91.51
2018-10-16T08:17:50.224Z,91.37
2018-10-16T08:20:19.624Z,91.79
2018-10-16T08:22:49.026Z,91.93
2018-10-16T08:25:18.544Z,91.90
2018-10-16T08:27:47.984Z,91.47
2018-10-16T08:30:17.441Z,90.61
2018-10-16T08:32:46.816Z,91.07
2018-10-16T08:35:16.214Z,90.54
2018-10-16T08:39:56.531Z,90.19
2018-10-16T08:43:44.097Z,89.22
2018-10-16T08:46:30.816Z,88.34
2018-10-16T08:49:17.240Z,87.64
2018-10-16T08:51:50.304Z,87.19
2018-10-16T08:54:20.194Z,86.99
2018-10-16T08:56:49.796Z,86.23
2018-10-16T08:59:19.539Z,84.96
2018-10-16T09:01:49.214Z,84.41
2018-10-16T09:04:18.887Z,84.03
2018-10-16T09:06:48.497Z,81.85
2018-10-16T09:09:19.006Z,82.34
2018-10-16T09:11:49.397Z,81.80
2018-10-16T09:14:19.185Z,80.21
2018-10-16T09:16:48.686Z,78.60
2018-10-16T09:19:18.333Z,75.66
2018-10-16T09:21:48.017Z,76.75
2018-10-16T09:24:17.618Z,76.71
2018-10-16T09:29:15.753Z,74.42
2018-10-16T09:31:45.539Z,72.58
2018-10-16T09:34:15.133Z,74.71
2018-10-16T09:36:44.762Z,73.23
2018-10-16T09:39:14.359Z,73.69
2018-10-16T09:41:44.068Z,71.68
2018-10-16T09:44:13.671Z,71.54
2018-10-16T09:46:43.400Z,72.32
2018-10-16T09:49:13.009Z,70.57
2018-10-16T09:51:42.599Z,71.46
2018-10-16T09:54:12.237Z,70.39
2018-10-16T09:56:41.931Z,69.41
2018-10-16T09:59:11.534Z,68.58
2018-10-16T10:01:45.941Z,68.06
2018-10-16T10:04:15.616Z,67.31
2018-10-16T10:06:45.272Z,67.27
2018-10-16T10:09:14.890Z,66.43
2018-10-16T10:11:44.488Z,65.01
2018-10-16T10:14:14.050Z,65.12
2018-10-16T10:16:43.714Z,64.89
2018-10-16T10:19:13.290Z,65.26
2018-10-16T10:21:42.871Z,62.59
2018-10-16T10:24:12.477Z,63.33
2018-10-16T10:26:42.084Z,62.77
2018-10-16T10:29:11.733Z,62.65
2018-10-16T10:31:41.353Z,62.39
2018-10-16T10:34:10.871Z,59.01
2018-10-16T10:36:40.573Z,59.19
2018-10-16T10:39:12.744Z,59.43
2018-10-16T10:41:42.951Z,59.44
2018-10-16T10:44:12.565Z,58.45
2018-10-16T10:46:42.251Z,58.37
2018-10-16T10:49:11.843Z,56.57
2018-10-16T10:51:41.763Z,55.59
2018-10-16T10:54:11.168Z,55.22
2018-10-16T10:56:40.838Z,55.35
2018-10-16T10:59:10.227Z,54.81
2018-10-16T11:01:39.629Z,55.17
2018-10-16T11:04:09.046Z,54.41
2018-10-16T11:06:38.445Z,54.82
2018-10-16T11:09:11.505Z,54.22
2018-10-16T11:11:41.536Z,55.60
2018-10-16T11:14:10.952Z,55.05
2018-10-16T11:16:40.413Z,55.69
2018-10-16T11:19:09.823Z,55.70
2018-10-16T11:21:39.225Z,56.87
2018-10-16T11:24:09.003Z,54.50
2018-10-16T11:26:38.421Z,55.31
2018-10-16T11:29:07.860Z,54.57
2018-10-16T11:31:37.620Z,54.85
2018-10-16T11:34:07.412Z,55.88
2018-10-16T11:36:36.876Z,55.81
2018-10-16T11:39:09.810Z,56.70
2018-10-16T11:41:39.240Z,55.45
2018-10-16T11:44:10.375Z,56.11
2018-10-16T11:46:39.960Z,54.96
2018-10-16T11:49:09.799Z,56.09
2018-10-16T11:51:39.188Z,55.97
2018-10-16T11:54:09.119Z,56.30
2018-10-16T11:56:38.803Z,56.34
2018-10-16T11:59:08.227Z,57.37
2018-10-16T12:01:37.656Z,57.89
2018-10-16T12:04:07.087Z,58.07
2018-10-16T12:06:36.585Z,57.52
2018-10-16T12:09:09.422Z,57.76
2018-10-16T12:11:39.740Z,57.94
2018-10-16T12:14:09.846Z,58.33
2018-10-16T12:16:47.278Z,57.95
2018-10-16T12:19:21.908Z,58.75
2018-10-16T12:21:51.320Z,59.53
2018-10-16T12:24:20.760Z,60.42
2018-10-16T12:26:50.149Z,58.90
2018-10-16T12:29:19.560Z,58.53
2018-10-16T12:31:48.967Z,59.66
2018-10-16T12:34:18.363Z,59.96
2018-10-16T12:36:47.775Z,58.75
2018-10-16T12:39:17.224Z,60.28
2018-10-16T12:41:46.671Z,58.73
2018-10-16T12:44:16.096Z,59.13
2018-10-16T12:46:45.500Z,59.15
2018-10-16T12:49:15.063Z,58.92
2018-10-16T12:51:44.584Z,59.60
2018-10-16T12:54:14.098Z,59.71
2018-10-16T12:56:43.462Z,58.89
2018-10-16T12:59:12.935Z,60.47
2018-10-16T13:01:42.282Z,59.52
2018-10-16T13:04:11.684Z,58.10
2018-10-16T13:06:41.201Z,57.16
2018-10-16T13:09:11.972Z,56.62
2018-10-16T13:11:42.257Z,57.10
2018-10-16T13:14:11.774Z,56.69
2018-10-16T13:16:41.165Z,54.56
2018-10-16T13:19:10.576Z,52.22
2018-10-16T13:21:39.965Z,52.73
2018-10-16T13:24:09.356Z,53.83
2018-10-16T13:26:38.772Z,54.79
2018-10-16T13:29:08.419Z,54.77
2018-10-16T13:31:37.739Z,54.38
2018-10-16T13:34:07.248Z,54.48
2018-10-16T13:36:36.628Z,54.43
2018-10-16T13:39:08.487Z,55.15
2018-10-16T13:41:37.893Z,54.30
2018-10-16T13:44:07.294Z,53.33
2018-10-16T13:46:36.680Z,53.72
2018-10-16T13:49:07.151Z,54.53
2018-10-16T13:51:36.544Z,55.09
2018-10-16T13:54:06.420Z,55.67
2018-10-16T13:56:35.832Z,57.17
2018-10-16T13:59:05.800Z,57.36
2018-10-16T14:01:35.236Z,56.67
2018-10-16T14:04:04.702Z,55.80
2018-10-16T14:06:34.025Z,53.80
2018-10-16T14:09:05.177Z,50.63
2018-10-16T14:11:34.579Z,48.94
2018-10-16T14:14:04.445Z,46.40
2018-10-16T14:16:33.847Z,45.99
2018-10-16T14:19:04.732Z,44.02
2018-10-16T14:21:34.140Z,41.70
2018-10-16T14:24:04.775Z,42.22
2018-10-16T14:26:34.224Z,41.87
2018-10-16T14:29:05.837Z,41.63
2018-10-16T14:31:35.241Z,42.20
2018-10-16T14:34:04.760Z,42.90
2018-10-16T14:36:34.160Z,43.12
2018-10-16T14:39:07.004Z,43.08
2018-10-16T14:41:36.443Z,42.92
2018-10-16T14:44:06.330Z,44.99
2018-10-16T14:46:35.892Z,43.47
2018-10-16T14:49:05.323Z,42.88
2018-10-16T14:51:35.520Z,42.79
2018-10-16T14:54:05.047Z,42.23
2018-10-16T14:56:34.945Z,41.72
2018-10-16T14:59:04.859Z,42.70
2018-10-16T15:01:34.288Z,41.20
2018-10-16T15:04:05.113Z,41.06
2018-10-16T15:06:34.476Z,40.20
2018-10-16T15:09:06.756Z,40.53
2018-10-16T15:11:36.160Z,40.37
2018-10-16T15:14:05.747Z,39.59
2018-10-16T15:16:35.323Z,39.75
2018-10-16T15:19:04.798Z,42.48
2018-10-16T15:21:34.219Z,43.03
2018-10-16T15:24:04.803Z,41.77
2018-10-16T15:26:34.239Z,44.89
2018-10-16T15:29:05.128Z,44.68
2018-10-16T15:31:34.581Z,45.95
2018-10-16T15:34:05.188Z,46.13
2018-10-16T15:36:34.588Z,48.07
2018-10-16T15:39:08.160Z,49.80
2018-10-16T15:41:37.695Z,50.55
2018-10-16T15:44:07.829Z,51.28
2018-10-16T15:46:37.728Z,51.72
2018-10-16T15:49:07.183Z,52.66
2018-10-16T15:51:36.959Z,53.93
2018-10-16T15:54:06.814Z,55.04
2018-10-16T15:56:36.133Z,55.51
2018-10-16T15:59:05.573Z,55.35
2018-10-16T16:01:34.994Z,55.70
2018-10-16T16:04:05.271Z,57.87
2018-10-16T16:06:34.652Z,59.18
2018-10-16T16:09:06.867Z,58.69
2018-10-16T16:11:36.343Z,59.36
2018-10-16T16:14:05.972Z,59.65
2018-10-16T16:16:35.546Z,60.29
2018-10-16T16:19:05.702Z,60.31
2018-10-16T16:21:35.192Z,60.41
2018-10-16T16:24:05.370Z,61.22
2018-10-16T16:26:34.740Z,62.21
2018-10-16T16:29:06.434Z,63.18
2018-10-16T16:31:35.857Z,64.29
2018-10-16T16:34:05.689Z,63.78
2018-10-16T16:36:35.098Z,64.97
2018-10-16T16:39:08.780Z,65.62
2018-10-16T16:41:38.205Z,65.21
2018-10-16T16:44:07.744Z,65.22
2018-10-16T16:46:37.239Z,67.61
2018-10-16T16:49:07.451Z,67.27
2018-10-16T16:51:36.895Z,67.35
2018-10-16T16:54:06.713Z,68.16
2018-10-16T16:56:36.132Z,68.78
2018-10-16T16:59:05.642Z,69.61
2018-10-16T17:01:35.143Z,70.17
2018-10-16T17:04:06.014Z,70.66
2018-10-16T17:06:35.375Z,71.26
2018-10-16T17:09:09.060Z,70.71
2018-10-16T17:11:38.710Z,70.44
2018-10-16T17:14:08.423Z,70.76
2018-10-16T17:16:37.857Z,70.75
2018-10-16T17:19:07.648Z,71.42
2018-10-16T17:21:37.289Z,71.95
2018-10-16T17:24:06.769Z,72.47
2018-10-16T17:26:36.220Z,73.42
2018-10-16T17:29:06.712Z,72.74
2018-10-16T17:31:36.137Z,74.43
2018-10-16T17:34:05.676Z,73.93
2018-10-16T17:36:35.074Z,74.27
2018-10-16T17:39:07.652Z,74.10
2018-10-16T17:41:37.065Z,74.50
2018-10-16T17:44:07.637Z,73.86
2018-10-16T17:46:37.349Z,73.43
2018-10-16T17:49:07.604Z,73.12
2018-10-16T17:51:37.736Z,73.88
2018-10-16T17:54:07.279Z,73.81
2018-10-16T17:56:36.748Z,74.42
2018-10-16T17:59:07.048Z,74.77
2018-10-16T18:01:37.730Z,74.80
2018-10-16T18:04:09.219Z,75.03
2018-10-16T18:06:40.110Z,76.69
2018-10-16T18:09:11.207Z,77.49
2018-10-16T18:11:41.969Z,77.35
2018-10-16T18:14:13.301Z,78.17
2018-10-16T18:16:46.044Z,78.39
2018-10-16T18:19:17.475Z,77.78
2018-10-16T18:21:48.447Z,76.78
2018-10-16T18:24:19.736Z,77.22
2018-10-16T18:26:51.331Z,77.52
2018-10-16T18:29:24.029Z,78.55
2018-10-16T18:31:55.575Z,77.40
2018-10-16T18:34:27.956Z,78.17
2018-10-16T18:36:58.915Z,78.22
2018-10-16T18:39:31.661Z,77.97
2018-10-16T18:42:04.400Z,77.39
2018-10-16T18:44:37.369Z,79.21
2018-10-16T18:47:10.347Z,78.58
2018-10-16T18:49:43.331Z,79.46
2018-10-16T18:52:16.732Z,79.44
2018-10-16T18:54:49.615Z,79.83
2018-10-16T18:57:22.518Z,79.95
2018-10-16T18:59:55.767Z,79.64
2018-10-16T19:02:28.450Z,79.50
2018-10-16T19:05:01.382Z,80.58
2018-10-16T19:07:34.577Z,80.41
2018-10-16T19:10:07.942Z,80.55
2018-10-16T19:12:41.970Z,81.23
2018-10-16T19:15:16.826Z,81.26
2018-10-16T19:17:49.873Z,82.00
2018-10-16T19:20:23.202Z,81.60
2018-10-16T19:22:56.151Z,82.15
2018-10-16T19:25:29.301Z,82.50
2018-10-16T19:28:02.602Z,82.20
2018-10-16T19:30:35.429Z,81.91
2018-10-16T19:33:08.619Z,82.66
2018-10-16T19:35:41.828Z,82.61
2018-10-16T19:38:14.735Z,82.50
2018-10-16T19:40:47.792Z,82.53
2018-10-16T19:43:20.976Z,82.24
2018-10-16T19:45:53.956Z,81.82
2018-10-16T19:48:26.975Z,81.81
2018-10-16T19:50:59.942Z,83.10
2018-10-16T19:53:32.919Z,82.85
2018-10-16T19:56:06.710Z,83.46
2018-10-16T19:58:39.570Z,84.03
2018-10-16T20:01:12.765Z,84.17
2018-10-16T20:03:45.651Z,84.68
2018-10-16T20:06:18.876Z,85.45
2018-10-16T20:08:52.045Z,84.51
2018-10-16T20:11:25.396Z,84.60
2018-10-16T20:13:58.289Z,85.80
2018-10-16T20:16:32.515Z,87.67
2018-10-16T20:19:06.202Z,87.82
2018-10-16T20:21:39.247Z,87.10
2018-10-16T20:24:12.207Z,86.90
2018-10-16T20:26:45.289Z,87.53
2018-10-16T20:29:18.257Z,87.48
2018-10-16T20:31:51.218Z,86.96
2018-10-16T20:34:24.314Z,86.71
2018-10-16T20:36:56.561Z,86.77
2018-10-16T20:39:27.792Z,86.95
2018-10-16T20:42:00.599Z,87.70
2018-10-16T20:44:32.513Z,87.39
2018-10-16T20:47:03.173Z,87.33
2018-10-16T20:49:33.446Z,88.50
2018-10-16T20:52:03.100Z,88.46
2018-10-16T20:54:32.844Z,88.88
2018-10-16T20:57:02.284Z,88.56
2018-10-16T20:59:31.715Z,89.70
2018-10-16T21:02:01.244Z,92.09
2018-10-16T21:04:30.741Z,92.54
2018-10-16T21:07:00.183Z,91.52
2018-10-16T21:09:29.519Z,91.02
2018-10-16T21:11:58.937Z,91.28
2018-10-16T21:14:28.331Z,91.12
2018-10-16T21:16:57.767Z,89.43
2018-10-16T21:19:27.273Z,90.37
2018-10-16T21:21:56.701Z,89.97
2018-10-16T21:24:26.099Z,89.81
2018-10-16T21:27:11.795Z,90.97
2018-10-16T21:29:41.229Z,91.51
2018-10-16T21:32:10.636Z,90.10
2018-10-16T21:34:40.077Z,90.35
2018-10-16T21:37:09.572Z,90.91
2018-10-16T21:39:38.979Z,92.62
2018-10-16T21:42:08.371Z,91.71
2018-10-16T21:44:37.796Z,91.90
2018-10-16T21:47:07.277Z,91.24
2018-10-16T21:49:36.636Z,91.81
2018-10-16T21:52:06.070Z,91.34
2018-10-16T21:54:35.540Z,91.89
2018-10-16T21:57:04.967Z,92.08
2018-10-16T21:59:34.487Z,94.88
2018-10-16T22:02:08.961Z,98.42
2018-10-16T22:04:40.459Z,98.63
2018-10-16T22:07:10.495Z,98.15
2018-10-16T22:09:39.891Z,97.51
2018-10-16T22:12:09.280Z,97.00
2018-10-16T22:14:38.716Z,96.62
2018-10-16T22:17:08.210Z,95.82
2018-10-16T22:19:37.585Z,95.46
2018-10-16T22:22:07.065Z,96.37
2018-10-16T22:24:36.489Z,96.86
2018-10-16T22:27:06.112Z,97.37
2018-10-16T22:29:35.541Z,96.05
2018-10-16T22:32:04.960Z,95.91
2018-10-16T22:34:34.372Z,95.38
2018-10-16T22:37:04.013Z,95.27
2018-10-16T22:39:33.359Z,95.79
2018-10-16T22:42:02.760Z,96.70
2018-10-16T22:44:32.222Z,96.84
2018-10-16T22:47:01.632Z,96.66
2018-10-16T22:49:31.030Z,95.89
2018-10-16T22:52:00.433Z,96.44
2018-10-16T22:54:29.828Z,96.60
2018-10-16T22:56:59.243Z,96.47
2018-10-16T22:59:28.647Z,96.06
2018-10-16T23:01:58.064Z,96.68
2018-10-16T23:04:27.479Z,96.33
2018-10-16T23:06:56.937Z,96.46
2018-10-16T23:09:26.292Z,97.05
2018-10-16T23:11:55.703Z,96.37
2018-10-16T23:14:25.203Z,96.33
2018-10-16T23:16:54.699Z,96.78
2018-10-16T23:19:24.092Z,97.85
2018-10-16T23:21:53.576Z,97.75
2018-10-16T23:24:22.971Z,97.62
2018-10-16T23:26:52.464Z,98.92
2018-10-16T23:29:21.871Z,99.07
2018-10-16T23:31:51.355Z,99.04
2018-10-16T23:34:20.791Z,98.59
2018-10-16T23:36:50.268Z,98.80
2018-10-16T23:39:19.675Z,98.26
2018-10-16T23:41:49.066Z,98.53
2018-10-16T23:44:18.480Z,98.15
2018-10-16T23:46:47.871Z,97.49
2018-10-16T23:49:17.273Z,97.03
2018-10-16T23:51:46.679Z,96.71
2018-10-16T23:54:16.223Z,96.87
2018-10-16T23:56:45.649Z,96.62
2018-10-16T23:59:15.171Z,97.69
